Time;durP1;ratioP1;P1;durP2;ratioP2;P2;SDS_P1;SDS_P2;PMS_P1;PMS_P2;Temp;Humidity;BMP_temperature;BMP_pressure;BME280_temperature;BME280_humidity;BME280_pressure;Samples;Min_cycle;Max_cycle;Signal;HPM_P1;HPM_P2
2022/06/04 00:00:17;;;;;;;15.20;4.85;;;;;;;22.37;62.90;100690.09;2090194;28;20111;-71
2022/06/04 00:01:39;;;;;;;10.85;4.57;;;;;;;22.24;63.42;100690.53;2092992;28;20052;-71
2022/06/04 00:03:02;;;;;;;16.55;4.88;;;;;;;22.11;63.62;100686.47;2086364;28;20048;-71
2022/06/04 00:04:26;;;;;;;12.52;4.97;;;;;;;22.08;63.80;100686.56;2084060;28;20091;-70
2022/06/04 00:05:51;;;;;;;15.07;5.40;;;;;;;22.13;63.96;100684.59;2083826;28;20068;-71
2022/06/04 00:07:13;;;;;;;15.95;5.38;;;;;;;22.18;63.70;100689.84;2092610;28;20076;-71
2022/06/04 00:08:35;;;;;;;18.77;5.05;;;;;;;22.24;63.76;100692.34;2086150;28;20582;-71
2022/06/04 00:16:48;;;;;;;13.25;4.93;;;;;;;22.16;63.71;100686.31;2096658;28;20496;-71
2022/06/04 00:18:11;;;;;;;12.52;4.60;;;;;;;22.22;63.61;100678.03;2086205;28;20123;-71
2022/06/04 00:19:34;;;;;;;19.88;5.25;;;;;;;22.27;63.61;100670.69;2091974;28;20060;-71
2022/06/04 00:20:57;;;;;;;15.98;4.85;;;;;;;22.28;63.42;100672.47;2085724;28;20052;-71
2022/06/04 00:22:20;;;;;;;14.43;5.60;;;;;;;22.32;63.26;100667.88;2077662;28;20045;-71
2022/06/04 00:23:42;;;;;;;14.32;5.03;;;;;;;22.38;63.18;100662.28;2090840;28;20055;-71
2022/06/04 00:25:08;;;;;;;12.57;5.82;;;;;;;22.42;63.03;100655.84;2090222;28;20169;-71
2022/06/04 00:26:30;;;;;;;12.10;4.35;;;;;;;22.46;62.87;100654.78;2101165;28;20040;-70
2022/06/04 00:27:54;;;;;;;12.55;4.47;;;;;;;22.50;62.77;100653.78;2108438;28;20043;-71
2022/06/04 00:29:15;;;;;;;11.30;5.20;;;;;;;22.51;62.75;100652.84;2102591;28;20138;-71
2022/06/04 00:30:38;;;;;;;11.88;4.90;;;;;;;22.53;62.65;100650.97;2095507;28;20167;-71
2022/06/04 00:32:02;;;;;;;13.32;5.20;;;;;;;22.51;62.58;100653.69;2094037;28;20459;-71
2022/06/04 00:33:24;;;;;;;14.10;6.13;;;;;;;22.49;62.53;100652.91;2086117;28;20389;-71
2022/06/04 00:34:49;;;;;;;10.68;4.70;;;;;;;22.46;62.50;100652.97;2108389;28;20101;-71
2022/06/04 00:36:12;;;;;;;13.93;4.53;;;;;;;22.44;62.77;100638.72;2102634;28;20067;-71
2022/06/04 00:37:36;;;;;;;12.00;4.80;;;;;;;22.45;62.85;100636.91;2102580;28;20032;-72
2022/06/04 00:38:58;;;;;;;15.77;5.10;;;;;;;22.45;62.72;100632.38;2087326;28;20060;-71
2022/06/04 00:40:31;;;;;;;11.45;5.20;;;;;;;22.48;62.72;100626.91;2098445;28;20036;-71
2022/06/04 00:42:02;;;;;;;13.20;5.65;;;;;;;22.50;62.68;100625.06;2104025;28;20055;-71
2022/06/04 00:43:25;;;;;;;16.13;5.60;;;;;;;22.48;62.73;100629.59;2094874;28;20076;-71
2022/06/04 00:45:21;;;;;;;20.17;5.60;;;;;;;22.47;62.65;100624.28;2100021;28;20059;-71
2022/06/04 00:47:13;;;;;;;12.57;5.72;;;;;;;22.35;62.75;100630.97;2105265;28;20086;-71
2022/06/04 00:48:36;;;;;;;15.02;5.18;;;;;;;22.25;62.94;100634.94;2106161;28;20079;-71
2022/06/04 00:50:00;;;;;;;17.27;5.20;;;;;;;22.26;63.08;100642.03;2091008;28;20067;-71
2022/06/04 00:51:24;;;;;;;14.65;4.93;;;;;;;22.26;63.01;100636.66;2091017;28;20369;-71
2022/06/04 00:52:49;;;;;;;13.93;5.07;;;;;;;22.26;62.99;100634.84;2099462;28;20056;-71
2022/06/04 00:54:11;;;;;;;10.77;5.00;;;;;;;22.28;62.96;100640.19;2096871;28;20411;-71
2022/06/04 00:55:45;;;;;;;14.48;5.10;;;;;;;22.29;62.75;100639.25;2108736;28;20036;-71
2022/06/04 00:57:28;;;;;;;15.18;5.28;;;;;;;22.26;62.69;100631.28;2104815;28;20436;-71
2022/06/04 00:59:14;;;;;;;16.10;6.00;;;;;;;22.23;62.62;100631.41;2105196;28;20078;-71
2022/06/04 01:00:43;;;;;;;13.68;4.95;;;;;;;22.18;62.58;100633.38;2091121;28;20147;-71
2022/06/04 01:02:14;;;;;;;13.70;4.43;;;;;;;22.14;62.56;100629.88;2109709;28;20051;-71
2022/06/04 01:03:52;;;;;;;17.42;5.55;;;;;;;22.08;62.79;100635.47;2096548;28;20056;-71
2022/06/04 01:05:23;;;;;;;11.65;4.78;;;;;;;22.06;63.06;100647.22;2103087;28;20078;-72
2022/06/04 01:06:55;;;;;;;9.40;4.15;;;;;;;22.04;62.91;100646.41;2111895;28;20052;-72
2022/06/04 01:08:46;;;;;;;11.55;4.70;;;;;;;21.98;63.22;100651.97;2103614;28;20071;-72
2022/06/04 01:10:21;;;;;;;14.50;6.28;;;;;;;21.95;63.17;100649.34;2104269;28;20580;-72
2022/06/04 01:12:12;;;;;;;12.02;4.75;;;;;;;21.94;63.22;100647.59;2094681;28;20087;-71
2022/06/04 01:13:48;;;;;;;15.20;4.78;;;;;;;21.90;63.39;100660.25;2105080;28;20148;-71
2022/06/04 01:15:19;;;;;;;12.73;4.93;;;;;;;21.90;63.46;100662.06;2100273;28;20126;-71
2022/06/04 01:16:52;;;;;;;15.20;5.10;;;;;;;21.91;63.50;100669.22;2093785;28;20053;-71
2022/06/04 01:18:32;;;;;;;13.45;4.28;;;;;;;21.89;63.63;100677.31;2086987;28;20045;-71
2022/06/04 01:20:04;;;;;;;15.50;4.50;;;;;;;21.89;63.61;100685.38;2096880;28;20071;-71
2022/06/04 01:21:40;;;;;;;9.43;4.47;;;;;;;21.84;63.69;100685.53;2106039;28;20039;-71
2022/06/04 01:23:34;;;;;;;17.92;5.22;;;;;;;21.78;63.86;100683.03;2096223;28;20144;-70
2022/06/04 01:25:15;;;;;;;13.75;5.10;;;;;;;21.74;64.04;100686.75;2104497;28;20156;-70
2022/06/04 01:27:14;;;;;;;18.90;5.03;;;;;;;21.73;63.99;100681.41;2103846;28;20063;-70
2022/06/04 01:28:45;;;;;;;10.88;5.30;;;;;;;21.71;63.89;100685.97;2100614;28;20163;-70
2022/06/04 01:30:11;;;;;;;17.00;6.22;;;;;;;21.71;63.88;100677.91;2097872;28;20048;-71
2022/06/04 01:31:40;;;;;;;11.10;4.72;;;;;;;21.73;63.89;100682.28;2100626;28;20052;-71
2022/06/04 01:33:09;;;;;;;13.27;5.50;;;;;;;21.73;63.74;100682.28;2103318;28;20052;-70
2022/06/04 01:34:36;;;;;;;11.05;4.47;;;;;;;21.72;63.76;100677.88;2102811;28;20071;-70
2022/06/04 01:36:05;;;;;;;9.43;4.03;;;;;;;21.71;63.81;100669.84;2101118;28;20093;-70
2022/06/04 01:37:34;;;;;;;14.48;4.90;;;;;;;21.70;63.77;100677.03;2093722;28;20064;-72
2022/06/04 01:39:00;;;;;;;13.18;4.45;;;;;;;21.64;63.82;100681.72;2101265;28;20082;-71
2022/06/04 01:42:07;;;;;;;11.63;5.20;;;;;;;21.26;65.04;100685.56;2103984;28;20695;-70
2022/06/04 01:43:33;;;;;;;8.75;4.38;;;;;;;21.14;65.47;100686.75;2098726;28;20128;-71
2022/06/04 01:44:59;;;;;;;15.82;5.03;;;;;;;21.12;65.78;100693.97;2093381;28;20049;-71
2022/06/04 01:46:26;;;;;;;10.85;4.57;;;;;;;21.13;65.67;100681.44;2083435;28;20052;-71
2022/06/04 01:47:51;;;;;;;15.63;6.45;;;;;;;21.16;65.65;100684.94;2097402;28;20573;-71
2022/06/04 01:49:18;;;;;;;16.17;6.80;;;;;;;21.28;65.53;100692.63;2094251;28;20040;-71
2022/06/04 01:50:45;;;;;;;21.75;6.00;;;;;;;21.36;65.29;100693.28;2100761;28;20051;-71
2022/06/04 01:52:11;;;;;;;10.68;5.68;;;;;;;21.41;64.91;100696.72;2104659;28;20498;-71
2022/06/04 01:53:39;;;;;;;13.57;5.72;;;;;;;21.41;64.89;100698.50;2093393;28;20052;-72
2022/06/04 01:55:09;;;;;;;12.95;5.30;;;;;;;21.41;64.86;100696.72;2101329;28;20048;-71
2022/06/04 01:56:40;;;;;;;8.98;4.38;;;;;;;21.40;64.92;100692.25;2094700;28;20056;-71
2022/06/04 01:58:05;;;;;;;11.32;4.82;;;;;;;21.41;64.97;100690.47;2085557;28;20071;-71
2022/06/04 01:59:32;;;;;;;11.93;5.28;;;;;;;21.42;64.89;100685.03;2106777;28;20081;-71
2022/06/04 02:01:00;;;;;;;9.70;4.63;;;;;;;21.41;64.87;100685.97;2091347;28;20049;-71
2022/06/04 02:02:29;;;;;;;12.05;5.43;;;;;;;21.40;64.86;100691.38;2101218;28;20059;-71
2022/06/04 02:03:56;;;;;;;12.48;5.40;;;;;;;21.36;65.04;100685.22;2103050;28;20135;-71
2022/06/04 02:05:23;;;;;;;13.23;5.25;;;;;;;21.37;64.95;100692.38;2102683;28;20048;-71
2022/06/04 02:07:29;;;;;;;11.52;5.57;;;;;;;21.41;64.79;100687.78;2094147;28;20072;-71
2022/06/04 02:08:39;;;;;;;16.42;6.25;;;;;;;21.34;64.85;100689.75;2096024;28;20099;-71
2022/06/04 02:10:07;;;;;;;13.98;5.90;;;;;;;21.34;65.34;100684.38;2094677;28;20072;-71
2022/06/04 02:11:32;;;;;;;10.90;4.60;;;;;;;21.39;65.34;100685.16;2107460;28;20047;-71
2022/06/04 02:12:57;;;;;;;18.50;5.57;;;;;;;21.29;65.54;100677.41;2104933;28;20095;-71
2022/06/04 02:14:20;;;;;;;12.25;5.78;;;;;;;21.09;66.26;100683.31;2105032;28;20463;-71
2022/06/04 02:15:50;;;;;;;14.85;4.97;;;;;;;21.09;66.99;100677.94;2101615;28;20040;-71
2022/06/04 02:17:18;;;;;;;19.90;5.50;;;;;;;21.24;66.99;100677.53;2103099;28;20075;-71
2022/06/04 02:18:41;;;;;;;12.32;4.72;;;;;;;21.22;66.75;100683.88;2102839;28;20078;-71
2022/06/04 02:20:05;;;;;;;15.77;5.60;;;;;;;21.08;66.95;100677.06;2102045;28;20053;-71
2022/06/04 02:21:29;;;;;;;13.90;5.18;;;;;;;21.13;67.02;100673.38;2095669;28;20071;-71
2022/06/04 02:22:52;;;;;;;14.77;5.70;;;;;;;21.21;67.17;100669.56;2098183;28;20043;-71
2022/06/04 02:24:13;;;;;;;19.00;6.75;;;;;;;21.34;67.08;100675.44;2093713;28;20125;-71
2022/06/04 02:25:36;;;;;;;16.08;4.90;;;;;;;21.43;66.81;100685.94;2089762;28;20040;-70
2022/06/04 02:27:01;;;;;;;21.45;5.07;;;;;;;21.41;66.82;100683.28;2099834;28;20108;-70
2022/06/04 02:28:24;;;;;;;11.82;4.80;;;;;;;21.46;66.79;100680.47;2093713;28;20547;-70
2022/06/04 02:29:45;;;;;;;16.45;5.55;;;;;;;21.56;66.89;100673.00;2107428;28;20114;-71
2022/06/04 02:31:16;;;;;;;15.25;4.90;;;;;;;21.67;66.89;100678.91;2097908;28;20056;-71
2022/06/04 02:32:53;;;;;;;11.93;5.28;;;;;;;21.71;66.85;100680.59;2099173;28;20051;-70
2022/06/04 02:34:25;;;;;;;15.15;5.28;;;;;;;21.70;66.78;100679.72;2115362;28;20056;-70
2022/06/04 02:35:55;;;;;;;14.60;5.22;;;;;;;21.77;66.54;100686.66;2087949;28;20041;-70
2022/06/04 02:37:24;;;;;;;13.27;5.65;;;;;;;21.84;66.58;100676.59;2105928;28;20059;-70
2022/06/04 02:38:52;;;;;;;13.15;4.80;;;;;;;21.75;66.50;100677.75;2094697;28;20129;-70
2022/06/04 02:40:19;;;;;;;13.95;4.57;;;;;;;21.59;66.61;100676.50;2100353;28;20055;-70
2022/06/04 02:41:47;;;;;;;12.75;4.80;;;;;;;21.44;66.98;100669.78;2104309;28;20135;-70
2022/06/04 02:43:15;;;;;;;10.57;4.20;;;;;;;21.28;67.22;100679.19;2095342;28;20072;-71
2022/06/04 02:44:45;;;;;;;17.85;4.60;;;;;;;21.24;67.47;100672.19;2093436;28;20055;-70
2022/06/04 02:46:18;;;;;;;15.00;5.60;;;;;;;21.28;67.30;100675.63;2110998;28;20271;-70
2022/06/04 02:47:46;;;;;;;12.75;4.97;;;;;;;21.34;67.34;100668.28;2105073;28;20074;-70
2022/06/04 02:49:12;;;;;;;13.50;5.60;;;;;;;21.40;66.99;100673.47;2101642;28;20454;-70
2022/06/04 02:50:39;;;;;;;21.13;5.47;;;;;;;21.42;66.88;100679.69;2101815;28;20506;-70
2022/06/04 02:52:02;;;;;;;13.50;4.88;;;;;;;21.42;66.94;100679.69;2100820;28;20188;-71
2022/06/04 02:53:27;;;;;;;14.40;4.85;;;;;;;21.42;67.06;100674.31;2091542;28;20037;-71
2022/06/04 02:54:55;;;;;;;18.52;5.75;;;;;;;21.46;66.96;100675.97;2093134;28;20578;-71
2022/06/04 02:56:21;;;;;;;15.77;5.25;;;;;;;21.53;67.09;100675.81;2093689;28;20063;-70
2022/06/04 02:57:48;;;;;;;12.48;4.93;;;;;;;21.58;66.76;100673.84;2095759;28;20409;-71
2022/06/04 02:59:13;;;;;;;13.98;5.63;;;;;;;21.58;66.97;100679.22;2095630;28;20040;-71
2022/06/04 03:00:37;;;;;;;11.55;5.13;;;;;;;21.61;66.92;100671.03;2101250;28;20052;-71
2022/06/04 03:02:02;;;;;;;12.82;4.95;;;;;;;21.62;66.94;100679.06;2103461;28;20109;-71
2022/06/04 03:03:27;;;;;;;14.63;5.15;;;;;;;21.52;66.77;100677.59;2095267;28;20443;-70
2022/06/04 03:04:52;;;;;;;12.23;4.78;;;;;;;21.44;67.04;100675.16;2092477;28;20087;-70
2022/06/04 03:06:24;;;;;;;12.75;5.25;;;;;;;21.34;67.18;100673.66;2099355;28;20100;-70
2022/06/04 03:07:49;;;;;;;14.63;5.30;;;;;;;21.24;67.48;100674.84;2113148;28;20042;-70
2022/06/04 03:09:16;;;;;;;13.18;4.82;;;;;;;21.20;67.51;100683.91;2097821;28;20401;-70
2022/06/04 03:10:37;;;;;;;11.52;5.60;;;;;;;21.19;67.59;100686.66;2095116;28;20163;-71
2022/06/04 03:12:00;;;;;;;13.98;4.85;;;;;;;21.15;67.98;100685.81;2094744;28;20048;-70
2022/06/04 03:13:22;;;;;;;13.88;4.53;;;;;;;21.15;68.01;100685.81;2086964;28;20079;-70
2022/06/04 03:14:46;;;;;;;13.32;5.60;;;;;;;21.16;68.13;100684.06;2100306;28;20054;-71
2022/06/04 03:16:08;;;;;;;10.90;5.32;;;;;;;21.14;67.99;100685.88;2086485;28;20068;-71
2022/06/04 03:17:31;;;;;;;16.00;4.53;;;;;;;21.12;68.12;100682.38;2097769;28;20047;-71
2022/06/04 03:18:55;;;;;;;11.38;4.88;;;;;;;21.17;67.96;100684.03;2086554;28;20086;-71
2022/06/04 03:20:20;;;;;;;16.48;5.60;;;;;;;21.27;67.90;100680.13;2089412;28;20052;-71
2022/06/04 03:21:44;;;;;;;10.43;5.35;;;;;;;21.36;67.51;100676.28;2092877;28;20041;-70
2022/06/04 03:23:07;;;;;;;13.23;5.30;;;;;;;21.45;67.42;100679.59;2093127;28;20076;-70
2022/06/04 03:24:29;;;;;;;13.80;5.15;;;;;;;21.48;67.26;100679.47;2100404;28;20048;-71
2022/06/04 03:25:51;;;;;;;13.73;4.55;;;;;;;21.46;67.27;100678.63;2094504;28;20049;-71
2022/06/04 03:27:14;;;;;;;8.63;3.70;;;;;;;21.34;67.62;100676.34;2094925;28;20079;-70
2022/06/04 03:28:37;;;;;;;12.25;5.20;;;;;;;21.28;67.87;100681.88;2097292;28;20051;-70
2022/06/04 03:29:58;;;;;;;10.30;4.50;;;;;;;21.26;68.20;100681.06;2092484;28;20064;-71
2022/06/04 03:31:21;;;;;;;9.52;4.15;;;;;;;21.21;68.37;100672.25;2098793;28;20062;-71
2022/06/04 03:32:44;;;;;;;11.32;4.88;;;;;;;21.16;68.58;100676.00;2103039;28;20067;-70
2022/06/04 03:34:08;;;;;;;12.52;4.57;;;;;;;21.14;68.54;100676.00;2103414;28;20052;-70
2022/06/04 03:35:31;;;;;;;14.48;5.05;;;;;;;21.09;68.63;100676.16;2095021;28;20076;-70
2022/06/04 03:36:53;;;;;;;9.23;4.35;;;;;;;21.08;68.82;100677.06;2091944;28;20589;-70
2022/06/04 03:38:16;;;;;;;11.77;4.65;;;;;;;21.15;68.93;100680.47;2091285;28;20064;-71
2022/06/04 03:39:39;;;;;;;13.18;4.65;;;;;;;21.29;68.85;100678.28;2091085;28;20068;-70
2022/06/04 03:41:00;;;;;;;10.02;4.28;;;;;;;21.42;68.64;100677.00;2100247;28;20692;-71
2022/06/04 03:42:23;;;;;;;14.70;4.72;;;;;;;21.45;68.58;100684.97;2102094;28;20401;-70
2022/06/04 03:43:47;;;;;;;19.95;6.43;;;;;;;21.54;68.53;100685.59;2103150;28;20108;-70
2022/06/04 03:45:12;;;;;;;15.65;4.63;;;;;;;21.70;68.39;100695.84;2093991;28;20536;-70
2022/06/04 03:46:35;;;;;;;9.88;5.15;;;;;;;21.90;68.01;100694.31;2101126;28;20131;-71
2022/06/04 03:47:56;;;;;;;14.45;5.50;;;;;;;22.09;67.46;100699.09;2111513;28;20043;-70
2022/06/04 03:49:21;;;;;;;12.35;4.85;;;;;;;22.30;67.21;100704.69;2111369;28;20035;-71
2022/06/04 03:50:44;;;;;;;17.00;5.60;;;;;;;22.46;66.93;100701.41;2111726;28;20059;-70
2022/06/04 03:52:07;;;;;;;14.23;5.05;;;;;;;22.61;66.49;100705.41;2105277;28;20147;-71
2022/06/04 03:53:29;;;;;;;12.13;4.75;;;;;;;22.78;66.27;100710.19;2101890;28;20044;-70
2022/06/04 03:54:53;;;;;;;21.65;5.03;;;;;;;22.92;65.91;100706.09;2102133;28;20484;-70
2022/06/04 03:56:17;;;;;;;14.75;5.97;;;;;;;23.03;65.58;100698.53;2109314;28;20043;-70
2022/06/04 03:57:41;;;;;;;14.55;4.97;;;;;;;23.14;65.38;100698.13;2105479;28;20068;-70
2022/06/04 03:59:04;;;;;;;14.48;4.97;;;;;;;23.32;65.13;100701.94;2094698;28;20054;-70
2022/06/04 04:00:29;;;;;;;12.60;4.40;;;;;;;23.50;64.56;100705.78;2097622;28;20053;-70
2022/06/04 04:01:52;;;;;;;8.82;4.07;;;;;;;23.64;64.17;100709.69;2094822;28;20135;-70
2022/06/04 04:03:17;;;;;;;15.18;4.70;;;;;;;23.79;63.82;100706.41;2086699;28;20247;-70
2022/06/04 04:04:40;;;;;;;12.40;4.38;;;;;;;23.95;63.33;100703.09;2101481;28;20880;-71
2022/06/04 04:06:03;;;;;;;11.07;3.95;;;;;;;24.07;63.02;100708.00;2105017;28;20079;-71
2022/06/04 04:07:24;;;;;;;8.68;4.22;;;;;;;24.19;62.51;100710.22;2102946;28;20048;-70
2022/06/04 04:08:46;;;;;;;10.23;4.53;;;;;;;24.33;62.33;100715.91;2104276;28;20036;-70
2022/06/04 04:10:09;;;;;;;12.65;4.57;;;;;;;24.50;62.00;100713.38;2101913;28;20052;-70
2022/06/04 04:11:31;;;;;;;10.77;4.38;;;;;;;24.66;61.94;100719.00;2091088;28;20090;-70
2022/06/04 04:12:53;;;;;;;13.25;4.25;;;;;;;24.83;61.52;100720.97;2099863;28;20056;-70
2022/06/04 04:14:16;;;;;;;14.00;5.15;;;;;;;25.01;61.31;100720.16;2097159;28;20048;-71
2022/06/04 04:15:40;;;;;;;15.13;7.28;;;;;;;25.19;60.77;100722.06;2107655;28;20550;-70
2022/06/04 04:17:01;;;;;;;12.52;3.83;;;;;;;25.34;60.44;100721.34;2105336;28;20040;-71
2022/06/04 04:18:24;;;;;;;17.33;4.75;;;;;;;25.51;60.13;100720.59;2102700;28;20094;-71
2022/06/04 04:19:47;;;;;;;18.13;4.32;;;;;;;25.71;59.85;100719.69;2106806;28;20396;-71
2022/06/04 04:21:12;;;;;;;15.15;4.20;;;;;;;25.89;59.09;100718.78;2088512;28;20044;-71
2022/06/04 04:22:33;;;;;;;17.88;7.15;;;;;;;26.04;58.51;100715.34;2087788;28;20076;-71
2022/06/04 04:23:56;;;;;;;11.85;4.25;;;;;;;26.22;58.08;100712.66;2108512;28;20039;-71
2022/06/04 04:25:19;;;;;;;10.82;4.63;;;;;;;26.42;58.07;100715.28;2096025;28;20044;-71
2022/06/04 04:26:42;;;;;;;16.35;5.28;;;;;;;26.61;57.55;100716.09;2102269;28;20102;-70
2022/06/04 04:28:06;;;;;;;16.90;5.32;;;;;;;26.82;56.94;100719.53;2102137;28;20051;-71
2022/06/04 04:29:29;;;;;;;11.55;4.95;;;;;;;27.00;56.56;100728.56;2108348;28;20060;-71
2022/06/04 04:30:52;;;;;;;10.70;4.85;;;;;;;27.18;55.83;100720.31;2103647;28;20075;-70
2022/06/04 04:32:14;;;;;;;10.95;4.25;;;;;;;27.26;55.24;100725.31;2111141;28;20077;-70
2022/06/04 04:33:37;;;;;;;13.15;4.05;;;;;;;27.24;54.73;100722.69;2105149;28;20064;-70
2022/06/04 04:35:01;;;;;;;10.55;3.80;;;;;;;27.23;54.60;100730.94;2094492;28;20167;-70
2022/06/04 04:36:27;;;;;;;12.75;3.92;;;;;;;27.34;54.21;100728.50;2108397;28;20082;-70
2022/06/04 04:37:50;;;;;;;11.52;3.85;;;;;;;27.56;53.93;100733.69;2094078;28;20064;-71
2022/06/04 04:39:13;;;;;;;15.60;4.40;;;;;;;27.79;53.29;100727.81;2101624;28;20480;-71
2022/06/04 04:40:36;;;;;;;14.85;3.83;;;;;;;28.05;52.63;100727.22;2105015;28;20039;-71
2022/06/04 04:41:59;;;;;;;11.05;4.10;;;;;;;28.28;51.92;100731.38;2102031;28;20048;-71
2022/06/04 04:43:22;;;;;;;9.23;3.58;;;;;;;28.50;51.34;100734.56;2102730;28;20147;-71
2022/06/04 04:44:45;;;;;;;11.90;4.00;;;;;;;28.71;50.68;100724.25;2102804;28;20131;-71
2022/06/04 04:46:09;;;;;;;15.55;4.05;;;;;;;28.87;50.15;100732.41;2094195;28;20163;-70
2022/06/04 04:47:31;;;;;;;20.35;3.85;;;;;;;29.01;49.75;100734.28;2100069;28;20043;-70
2022/06/04 04:48:53;;;;;;;19.02;4.25;;;;;;;29.18;49.57;100736.81;2104263;28;20659;-71
2022/06/04 04:50:20;;;;;;;12.20;4.32;;;;;;;29.44;48.94;100735.22;2101391;28;20036;-70
2022/06/04 04:51:43;;;;;;;13.25;3.67;;;;;;;29.65;48.14;100742.03;2094599;28;20048;-71
2022/06/04 04:53:08;;;;;;;17.35;4.05;;;;;;;29.89;47.09;100740.44;2091801;28;20049;-70
2022/06/04 04:54:31;;;;;;;11.68;3.78;;;;;;;30.09;46.94;100742.78;2092221;28;20052;-70
2022/06/04 04:55:53;;;;;;;10.82;3.60;;;;;;;30.31;46.54;100741.34;2092994;28;20516;-71
2022/06/04 04:57:15;;;;;;;10.50;4.40;;;;;;;30.49;45.85;100738.31;2098359;28;20059;-71
2022/06/04 04:58:38;;;;;;;9.65;3.88;;;;;;;30.67;46.00;100738.00;2096523;28;20590;-71
2022/06/04 05:00:00;;;;;;;10.70;3.65;;;;;;;30.85;45.67;100740.34;2098811;28;20448;-70
2022/06/04 05:01:25;;;;;;;9.82;3.58;;;;;;;31.05;45.66;100741.72;2101182;28;20134;-71
2022/06/04 05:02:48;;;;;;;17.90;4.63;;;;;;;31.27;45.32;100749.28;2093958;28;20049;-71
2022/06/04 05:04:10;;;;;;;11.55;3.28;;;;;;;31.47;44.60;100745.13;2101747;28;20047;-70
2022/06/04 05:05:35;;;;;;;11.65;3.63;;;;;;;31.63;43.99;100751.28;2102322;28;20044;-70
2022/06/04 05:06:58;;;;;;;8.52;3.97;;;;;;;31.84;43.55;100754.28;2102536;28;20591;-70
2022/06/04 05:08:21;;;;;;;11.13;2.97;;;;;;;32.01;43.19;100763.00;2105094;28;20523;-70
2022/06/04 05:09:44;;;;;;;11.43;3.00;;;;;;;32.12;42.38;100764.94;2109824;28;20078;-70
2022/06/04 05:11:07;;;;;;;11.45;3.13;;;;;;;32.29;42.08;100763.72;2091350;28;20135;-71
2022/06/04 05:12:30;;;;;;;14.10;2.92;;;;;;;32.43;41.66;100767.16;2093891;28;20072;-70
2022/06/04 05:13:51;;;;;;;14.63;3.53;;;;;;;32.61;41.36;100773.09;2091557;28;20049;-71
2022/06/04 05:15:14;;;;;;;15.75;3.67;;;;;;;32.69;41.15;100765.19;2089585;28;20557;-71
2022/06/04 05:16:38;;;;;;;14.02;3.30;;;;;;;32.74;40.95;100764.88;2107865;28;20075;-71
2022/06/04 05:18:01;;;;;;;11.48;3.28;;;;;;;32.79;41.21;100768.09;2105099;28;20194;-71
2022/06/04 05:19:22;;;;;;;13.00;4.00;;;;;;;32.81;40.86;100779.81;2100114;28;20086;-70
2022/06/04 05:20:47;;;;;;;11.63;3.15;;;;;;;32.83;40.88;100786.03;2095498;28;20063;-71
2022/06/04 05:22:10;;;;;;;15.15;3.72;;;;;;;32.83;40.91;100784.16;2091807;28;20052;-71
2022/06/04 05:23:31;;;;;;;8.18;3.47;;;;;;;32.88;40.59;100786.56;2086491;28;20048;-71
2022/06/04 05:24:54;;;;;;;13.32;3.92;;;;;;;32.95;40.38;100781.50;2099626;28;20137;-72
2022/06/04 05:26:17;;;;;;;13.65;3.95;;;;;;;33.04;40.44;100776.16;2110485;28;20153;-71
2022/06/04 05:27:39;;;;;;;17.27;4.05;;;;;;;33.13;40.27;100782.78;2104713;28;20146;-71
2022/06/04 05:29:02;;;;;;;14.65;4.78;;;;;;;33.28;40.00;100786.22;2101349;28;20086;-71
2022/06/04 05:30:25;;;;;;;11.15;2.65;;;;;;;33.33;40.09;100786.72;2100790;28;20036;-71
2022/06/04 05:31:47;;;;;;;9.30;2.72;;;;;;;33.32;39.87;100790.44;2093712;28;20052;-71
2022/06/04 05:33:09;;;;;;;16.15;2.70;;;;;;;33.30;39.84;100793.31;2089834;28;20076;-70
2022/06/04 05:34:32;;;;;;;14.45;3.97;;;;;;;33.32;39.86;100795.94;2099435;28;20081;-71
2022/06/04 05:35:55;;;;;;;17.80;3.42;;;;;;;33.39;39.65;100794.44;2102139;28;20056;-70
2022/06/04 05:37:18;;;;;;;16.00;3.80;;;;;;;33.40;39.68;100794.34;2102126;28;20043;-71
2022/06/04 05:38:41;;;;;;;13.40;3.08;;;;;;;33.48;39.26;100793.69;2101547;28;20377;-71
2022/06/04 05:40:05;;;;;;;14.82;3.35;;;;;;;33.48;39.35;100802.78;2109631;28;20695;-71
2022/06/04 05:41:28;;;;;;;16.30;3.47;;;;;;;33.38;39.44;100803.66;2104923;28;20131;-70
2022/06/04 05:42:50;;;;;;;14.88;3.17;;;;;;;33.31;39.76;100805.13;2102157;28;20047;-71
2022/06/04 05:44:13;;;;;;;10.43;3.60;;;;;;;33.32;39.55;100805.00;2101200;28;20499;-70
2022/06/04 05:45:36;;;;;;;13.52;3.30;;;;;;;33.30;39.62;100804.25;2101115;28;20039;-71
2022/06/04 05:46:59;;;;;;;13.73;3.33;;;;;;;33.23;39.94;100803.00;2091736;28;20065;-70
2022/06/04 05:48:21;;;;;;;10.13;3.28;;;;;;;33.12;40.11;100806.53;2097542;28;20087;-71
2022/06/04 05:49:46;;;;;;;14.23;3.00;;;;;;;32.97;40.50;100806.84;2104012;28;20372;-71
2022/06/04 05:51:13;;;;;;;21.30;3.88;;;;;;;32.99;40.39;100813.97;2100738;28;20492;-71
2022/06/04 05:52:36;;;;;;;11.98;3.70;;;;;;;33.20;40.00;100805.97;2091856;28;20071;-71
2022/06/04 05:53:59;;;;;;;11.70;3.03;;;;;;;33.31;40.08;100816.06;2091337;28;20079;-70
2022/06/04 05:55:22;;;;;;;17.83;3.42;;;;;;;33.41;39.85;100803.44;2091393;28;20117;-70
2022/06/04 05:56:45;;;;;;;16.98;4.18;;;;;;;33.37;39.74;100807.38;2091209;28;20442;-71
2022/06/04 05:58:08;;;;;;;11.98;2.88;;;;;;;33.35;39.65;100812.09;2090215;28;20049;-71
2022/06/04 05:59:31;;;;;;;13.30;3.63;;;;;;;33.42;39.54;100813.34;2095683;28;21502;-72
2022/06/04 06:01:00;;;;;;;15.75;3.50;;;;;;;33.60;39.54;100823.75;2100505;28;20097;-71
2022/06/04 06:02:23;;;;;;;11.43;3.53;;;;;;;33.75;39.39;100810.69;2094726;28;20087;-72
2022/06/04 06:03:46;;;;;;;10.85;3.30;;;;;;;33.79;39.34;100823.19;2091477;28;20151;-71
2022/06/04 06:05:09;;;;;;;20.88;4.90;;;;;;;33.80;38.98;100816.72;2099381;28;20101;-72
2022/06/04 06:06:35;;;;;;;16.25;3.20;;;;;;;33.78;38.95;100823.28;2097066;28;20052;-71
2022/06/04 06:07:58;;;;;;;8.15;3.45;;;;;;;33.71;39.07;100819.31;2103441;28;20047;-71
2022/06/04 06:09:23;;;;;;;16.83;3.80;;;;;;;33.72;38.96;100810.09;2095078;28;20048;-71
2022/06/04 06:10:44;;;;;;;13.80;3.67;;;;;;;33.70;38.97;100817.53;2085348;28;20049;-71
2022/06/04 06:12:08;;;;;;;14.32;3.90;;;;;;;33.69;38.83;100808.44;2099122;28;20128;-71
2022/06/04 06:13:30;;;;;;;14.18;3.25;;;;;;;33.78;38.91;100815.94;2103579;28;20075;-71
2022/06/04 06:14:53;;;;;;;11.38;3.13;;;;;;;34.00;38.53;100824.16;2097083;28;20078;-71
2022/06/04 06:16:18;;;;;;;12.57;4.07;;;;;;;34.16;38.23;100828.41;2093786;28;20128;-72
2022/06/04 06:17:40;;;;;;;18.17;3.90;;;;;;;34.11;38.09;100831.53;2102106;28;20178;-71
2022/06/04 06:19:01;;;;;;;12.80;3.15;;;;;;;34.08;38.18;100822.66;2095890;28;20037;-71
2022/06/04 06:20:24;;;;;;;13.18;4.25;;;;;;;34.09;38.24;100822.53;2103581;28;20101;-71
2022/06/04 06:21:48;;;;;;;15.23;3.78;;;;;;;34.23;37.99;100833.28;2101786;28;20536;-72
2022/06/04 06:23:10;;;;;;;11.95;3.35;;;;;;;34.15;38.31;100827.53;2107997;28;20079;-71
2022/06/04 06:24:33;;;;;;;14.57;3.05;;;;;;;34.15;38.09;100821.16;2093843;28;20132;-71
2022/06/04 06:25:55;;;;;;;13.32;3.33;;;;;;;34.01;38.10;100828.66;2097399;28;20052;-71
2022/06/04 06:27:18;;;;;;;10.93;3.08;;;;;;;34.06;38.23;100819.19;2112063;28;20412;-71
2022/06/04 06:28:41;;;;;;;12.90;3.78;;;;;;;34.12;38.11;100813.22;2101917;28;20132;-71
2022/06/04 06:30:04;;;;;;;15.05;3.08;;;;;;;34.25;37.83;100819.47;2103849;28;20531;-71
2022/06/04 06:31:29;;;;;;;16.85;4.05;;;;;;;34.27;37.54;100823.81;2101271;28;20452;-71
2022/06/04 06:32:51;;;;;;;9.98;3.30;;;;;;;34.27;37.35;100829.28;2107381;28;20155;-71
2022/06/04 06:34:14;;;;;;;12.48;3.05;;;;;;;34.29;37.38;100824.56;2102656;28;20059;-71
2022/06/04 06:35:37;;;;;;;13.18;3.33;;;;;;;34.26;37.42;100832.19;2092226;28;20607;-71
2022/06/04 06:37:02;;;;;;;11.38;3.10;;;;;;;34.29;37.19;100821.81;2094522;28;20809;-71
2022/06/04 06:38:25;;;;;;;12.82;3.00;;;;;;;34.17;37.10;100822.78;2101392;28;20424;-71
2022/06/04 06:39:47;;;;;;;13.73;3.10;;;;;;;34.01;37.42;100828.66;2103872;28;20504;-71
2022/06/04 06:41:10;;;;;;;14.23;3.28;;;;;;;34.08;37.57;100829.03;2092619;28;20409;-71